sensor_id;sensor_type;location;lat;lon;timestamp;pressure;altitude;pressure_sealevel;temperature;humidity
33404;BME280;19751;40.274;18.268;2022-12-18T00:01:35;101753.69;;;13.54;100.00
33404;BME280;19751;40.274;18.268;2022-12-18T00:04:06;101748.00;;;13.64;100.00
33404;BME280;19751;40.274;18.268;2022-12-18T00:06:34;101750.81;;;13.71;100.00
33404;BME280;19751;40.274;18.268;2022-12-18T00:09:00;101753.16;;;13.74;100.00
33404;BME280;19751;40.274;18.268;2022-12-18T00:11:28;101757.53;;;13.75;100.00
33404;BME280;19751;40.274;18.268;2022-12-18T00:13:56;101768.16;;;13.76;100.00
33404;BME280;19751;40.274;18.268;2022-12-18T00:16:24;101762.19;;;13.81;100.00
33404;BME280;19751;40.274;18.268;2022-12-18T00:18:52;101770.72;;;13.78;100.00
33404;BME280;19751;40.274;18.268;2022-12-18T00:21:19;101765.19;;;13.71;100.00
33404;BME280;19751;40.274;18.268;2022-12-18T00:23:46;101767.81;;;13.64;100.00
33404;BME280;19751;40.274;18.268;2022-12-18T00:26:17;101766.00;;;13.57;100.00
33404;BME280;19751;40.274;18.268;2022-12-18T00:28:44;101768.88;;;13.55;100.00
33404;BME280;19751;40.274;18.268;2022-12-18T00:31:12;101772.81;;;13.53;100.00
33404;BME280;19751;40.274;18.268;2022-12-18T00:33:42;101782.25;;;13.57;100.00
33404;BME280;19751;40.274;18.268;2022-12-18T00:36:09;101778.63;;;13.64;100.00
33404;BME280;19751;40.274;18.268;2022-12-18T00:38:36;101775.72;;;13.66;100.00
33404;BME280;19751;40.274;18.268;2022-12-18T00:41:02;101785.72;;;13.65;100.00
33404;BME280;19751;40.274;18.268;2022-12-18T00:43:27;101782.81;;;13.67;100.00
33404;BME280;19751;40.274;18.268;2022-12-18T00:45:54;101786.19;;;13.69;100.00
33404;BME280;19751;40.274;18.268;2022-12-18T00:48:20;101784.88;;;13.65;100.00
33404;BME280;19751;40.274;18.268;2022-12-18T00:50:47;101788.03;;;13.54;100.00
33404;BME280;19751;40.274;18.268;2022-12-18T00:53:13;101789.97;;;13.45;100.00
33404;BME280;19751;40.274;18.268;2022-12-18T00:55:39;101787.63;;;13.42;100.00
33404;BME280;19751;40.274;18.268;2022-12-18T00:58:07;101797.72;;;13.48;100.00
33404;BME280;19751;40.274;18.268;2022-12-18T01:00:32;101802.47;;;13.46;100.00
33404;BME280;19751;40.274;18.268;2022-12-18T01:02:58;101811.44;;;13.47;100.00
33404;BME280;19751;40.274;18.268;2022-12-18T01:05:26;101804.34;;;13.46;100.00
33404;BME280;19751;40.274;18.268;2022-12-18T01:07:52;101803.31;;;13.47;100.00
33404;BME280;19751;40.274;18.268;2022-12-18T01:10:18;101816.97;;;13.53;100.00
33404;BME280;19751;40.274;18.268;2022-12-18T01:12:48;101821.47;;;13.61;100.00
33404;BME280;19751;40.274;18.268;2022-12-18T01:15:14;101814.47;;;13.66;100.00
33404;BME280;19751;40.274;18.268;2022-12-18T01:17:41;101820.38;;;13.70;100.00
33404;BME280;19751;40.274;18.268;2022-12-18T01:20:14;101829.88;;;13.66;100.00
33404;BME280;19751;40.274;18.268;2022-12-18T01:22:40;101833.31;;;13.60;100.00
33404;BME280;19751;40.274;18.268;2022-12-18T01:25:06;101834.25;;;13.52;100.00
33404;BME280;19751;40.274;18.268;2022-12-18T01:27:33;101834.81;;;13.39;100.00
33404;BME280;19751;40.274;18.268;2022-12-18T01:29:59;101833.03;;;13.32;100.00
33404;BME280;19751;40.274;18.268;2022-12-18T01:32:25;101841.03;;;13.25;100.00
33404;BME280;19751;40.274;18.268;2022-12-18T01:34:52;101839.34;;;13.24;100.00
33404;BME280;19751;40.274;18.268;2022-12-18T01:37:18;101843.09;;;13.23;100.00
33404;BME280;19751;40.274;18.268;2022-12-18T01:39:45;101849.34;;;13.24;100.00
33404;BME280;19751;40.274;18.268;2022-12-18T01:42:13;101848.31;;;13.25;100.00
33404;BME280;19751;40.274;18.268;2022-12-18T01:44:58;101842.16;;;13.31;100.00
33404;BME280;19751;40.274;18.268;2022-12-18T01:49:56;101849.28;;;13.32;100.00
33404;BME280;19751;40.274;18.268;2022-12-18T01:52:24;101846.09;;;13.28;100.00
33404;BME280;19751;40.274;18.268;2022-12-18T01:54:51;101850.81;;;13.26;100.00
33404;BME280;19751;40.274;18.268;2022-12-18T01:57:19;101858.09;;;13.26;100.00
33404;BME280;19751;40.274;18.268;2022-12-18T01:59:49;101853.84;;;13.31;100.00
33404;BME280;19751;40.274;18.268;2022-12-18T02:02:17;101858.72;;;13.36;100.00
33404;BME280;19751;40.274;18.268;2022-12-18T02:04:44;101854.63;;;13.40;100.00
33404;BME280;19751;40.274;18.268;2022-12-18T02:07:47;101852.28;;;13.37;100.00
33404;BME280;19751;40.274;18.268;2022-12-18T02:10:27;101850.81;;;13.26;100.00
33404;BME280;19751;40.274;18.268;2022-12-18T02:13:08;101853.19;;;13.21;100.00
33404;BME280;19751;40.274;18.268;2022-12-18T02:15:51;101851.38;;;13.13;100.00
33404;BME280;19751;40.274;18.268;2022-12-18T02:18:35;101849.56;;;13.06;100.00
33404;BME280;19751;40.274;18.268;2022-12-18T02:29:03;101862.88;;;12.84;100.00
33404;BME280;19751;40.274;18.268;2022-12-18T02:31:36;101859.16;;;12.85;100.00
33404;BME280;19751;40.274;18.268;2022-12-18T02:34:11;101868.44;;;12.91;100.00
33404;BME280;19751;40.274;18.268;2022-12-18T02:36:41;101863.38;;;12.88;100.00
33404;BME280;19751;40.274;18.268;2022-12-18T02:39:10;101862.25;;;12.82;100.00
33404;BME280;19751;40.274;18.268;2022-12-18T02:41:37;101859.88;;;12.79;100.00
33404;BME280;19751;40.274;18.268;2022-12-18T02:44:10;101869.56;;;12.74;100.00
33404;BME280;19751;40.274;18.268;2022-12-18T02:46:53;101872.06;;;12.75;100.00
33404;BME280;19751;40.274;18.268;2022-12-18T02:49:44;101871.53;;;12.80;100.00
33404;BME280;19751;40.274;18.268;2022-12-18T02:52:27;101872.56;;;12.79;100.00
33404;BME280;19751;40.274;18.268;2022-12-18T02:57:59;101873.63;;;12.69;100.00
33404;BME280;19751;40.274;18.268;2022-12-18T03:03:20;101890.34;;;12.73;100.00
33404;BME280;19751;40.274;18.268;2022-12-18T03:05:53;101886.41;;;12.76;100.00
33404;BME280;19751;40.274;18.268;2022-12-18T03:08:52;101889.31;;;12.74;100.00
33404;BME280;19751;40.274;18.268;2022-12-18T03:11:22;101882.03;;;12.75;100.00
33404;BME280;19751;40.274;18.268;2022-12-18T03:14:09;101875.94;;;12.73;100.00
33404;BME280;19751;40.274;18.268;2022-12-18T03:16:36;101870.72;;;12.71;100.00
33404;BME280;19751;40.274;18.268;2022-12-18T03:19:16;101875.59;;;12.76;100.00
33404;BME280;19751;40.274;18.268;2022-12-18T03:21:54;101886.56;;;12.82;100.00
33404;BME280;19751;40.274;18.268;2022-12-18T03:24:21;101890.91;;;12.91;100.00
33404;BME280;19751;40.274;18.268;2022-12-18T03:26:52;101901.00;;;12.98;100.00
33404;BME280;19751;40.274;18.268;2022-12-18T03:29:21;101905.22;;;13.00;100.00
33404;BME280;19751;40.274;18.268;2022-12-18T03:31:53;101899.81;;;13.00;100.00
33404;BME280;19751;40.274;18.268;2022-12-18T03:34:26;101897.13;;;13.00;100.00
33404;BME280;19751;40.274;18.268;2022-12-18T03:36:57;101900.66;;;13.01;100.00
33404;BME280;19751;40.274;18.268;2022-12-18T03:39:23;101911.47;;;13.01;100.00
33404;BME280;19751;40.274;18.268;2022-12-18T03:47:09;101923.91;;;13.18;100.00
33404;BME280;19751;40.274;18.268;2022-12-18T03:52:30;101930.63;;;13.22;100.00
33404;BME280;19751;40.274;18.268;2022-12-18T03:55:00;101933.22;;;13.15;100.00
33404;BME280;19751;40.274;18.268;2022-12-18T03:57:32;101932.72;;;13.12;100.00
33404;BME280;19751;40.274;18.268;2022-12-18T04:00:17;101934.09;;;13.08;100.00
33404;BME280;19751;40.274;18.268;2022-12-18T04:02:47;101935.97;;;13.07;100.00
33404;BME280;19751;40.274;18.268;2022-12-18T04:05:15;101932.44;;;13.07;100.00
33404;BME280;19751;40.274;18.268;2022-12-18T04:07:42;101939.38;;;13.01;100.00
33404;BME280;19751;40.274;18.268;2022-12-18T04:10:09;101937.50;;;13.02;100.00
33404;BME280;19751;40.274;18.268;2022-12-18T04:12:39;101925.69;;;13.03;100.00
33404;BME280;19751;40.274;18.268;2022-12-18T04:15:05;101935.97;;;13.07;100.00
33404;BME280;19751;40.274;18.268;2022-12-18T04:17:32;101936.63;;;13.09;100.00
33404;BME280;19751;40.274;18.268;2022-12-18T04:20:00;101949.47;;;13.15;100.00
33404;BME280;19751;40.274;18.268;2022-12-18T04:22:26;101949.75;;;13.21;100.00
33404;BME280;19751;40.274;18.268;2022-12-18T04:24:52;101952.47;;;13.21;100.00
33404;BME280;19751;40.274;18.268;2022-12-18T04:27:18;101954.69;;;13.17;100.00
33404;BME280;19751;40.274;18.268;2022-12-18T04:29:44;101959.28;;;13.08;100.00
33404;BME280;19751;40.274;18.268;2022-12-18T04:32:09;101972.31;;;13.05;100.00
33404;BME280;19751;40.274;18.268;2022-12-18T04:34:41;101976.25;;;13.02;100.00
33404;BME280;19751;40.274;18.268;2022-12-18T04:37:07;101977.41;;;13.00;100.00
33404;BME280;19751;40.274;18.268;2022-12-18T04:39:33;101974.03;;;12.98;100.00
33404;BME280;19751;40.274;18.268;2022-12-18T04:41:59;101975.25;;;12.95;100.00
33404;BME280;19751;40.274;18.268;2022-12-18T04:44:25;101979.28;;;12.99;100.00
33404;BME280;19751;40.274;18.268;2022-12-18T04:46:51;101979.94;;;13.01;100.00
33404;BME280;19751;40.274;18.268;2022-12-18T04:49:16;101985.84;;;13.05;100.00
33404;BME280;19751;40.274;18.268;2022-12-18T04:51:44;101987.00;;;13.10;100.00
33404;BME280;19751;40.274;18.268;2022-12-18T04:54:10;101993.94;;;13.13;100.00
33404;BME280;19751;40.274;18.268;2022-12-18T04:56:35;102003.72;;;13.14;100.00
33404;BME280;19751;40.274;18.268;2022-12-18T04:59:01;102012.84;;;13.13;100.00
33404;BME280;19751;40.274;18.268;2022-12-18T05:01:26;102013.91;;;13.04;100.00
33404;BME280;19751;40.274;18.268;2022-12-18T05:03:54;102022.06;;;12.96;100.00
33404;BME280;19751;40.274;18.268;2022-12-18T05:06:20;102027.81;;;12.92;100.00
33404;BME280;19751;40.274;18.268;2022-12-18T05:08:45;102027.16;;;12.90;100.00
33404;BME280;19751;40.274;18.268;2022-12-18T05:11:13;102031.03;;;12.88;100.00
33404;BME280;19751;40.274;18.268;2022-12-18T05:13:43;102025.47;;;12.81;100.00
33404;BME280;19751;40.274;18.268;2022-12-18T05:16:10;102033.75;;;12.80;100.00
33404;BME280;19751;40.274;18.268;2022-12-18T05:18:36;102028.50;;;12.86;100.00
33404;BME280;19751;40.274;18.268;2022-12-18T05:21:02;102028.00;;;12.91;100.00
33404;BME280;19751;40.274;18.268;2022-12-18T05:23:28;102036.59;;;12.94;100.00
33404;BME280;19751;40.274;18.268;2022-12-18T05:25:58;102038.28;;;12.96;100.00
33404;BME280;19751;40.274;18.268;2022-12-18T05:28:26;102046.59;;;12.94;100.00
33404;BME280;19751;40.274;18.268;2022-12-18T05:30:54;102042.34;;;12.91;100.00
33404;BME280;19751;40.274;18.268;2022-12-18T05:33:23;102044.03;;;12.92;100.00
33404;BME280;19751;40.274;18.268;2022-12-18T05:35:54;102050.81;;;12.88;100.00
33404;BME280;19751;40.274;18.268;2022-12-18T05:38:21;102050.66;;;12.82;100.00
33404;BME280;19751;40.274;18.268;2022-12-18T05:40:47;102055.72;;;12.85;100.00
33404;BME280;19751;40.274;18.268;2022-12-18T05:43:17;102058.25;;;12.86;100.00
33404;BME280;19751;40.274;18.268;2022-12-18T05:45:43;102057.22;;;12.87;100.00
33404;BME280;19751;40.274;18.268;2022-12-18T05:48:13;102060.97;;;12.86;100.00
33404;BME280;19751;40.274;18.268;2022-12-18T05:50:40;102069.72;;;12.88;100.00
33404;BME280;19751;40.274;18.268;2022-12-18T05:53:10;102064.16;;;12.98;100.00
33404;BME280;19751;40.274;18.268;2022-12-18T05:55:37;102068.00;;;13.04;100.00
33404;BME280;19751;40.274;18.268;2022-12-18T05:58:03;102077.66;;;13.06;100.00
33404;BME280;19751;40.274;18.268;2022-12-18T06:00:38;102081.19;;;13.07;100.00
33404;BME280;19751;40.274;18.268;2022-12-18T06:03:08;102085.25;;;13.11;100.00
33404;BME280;19751;40.274;18.268;2022-12-18T06:05:38;102085.56;;;13.16;100.00
33404;BME280;19751;40.274;18.268;2022-12-18T06:08:06;102082.53;;;13.19;100.00
33404;BME280;19751;40.274;18.268;2022-12-18T06:10:32;102077.44;;;13.16;100.00
33404;BME280;19751;40.274;18.268;2022-12-18T06:12:58;102073.56;;;13.10;100.00
33404;BME280;19751;40.274;18.268;2022-12-18T06:15:26;102081.34;;;13.05;100.00
33404;BME280;19751;40.274;18.268;2022-12-18T06:17:51;102081.19;;;13.07;100.00
33404;BME280;19751;40.274;18.268;2022-12-18T06:20:18;102086.44;;;13.08;100.00
33404;BME280;19751;40.274;18.268;2022-12-18T06:22:44;102084.75;;;13.07;100.00
33404;BME280;19751;40.274;18.268;2022-12-18T06:25:10;102086.59;;;13.07;100.00
33404;BME280;19751;40.274;18.268;2022-12-18T06:27:35;102095.38;;;13.09;100.00
33404;BME280;19751;40.274;18.268;2022-12-18T06:30:04;102099.75;;;13.10;100.00
33404;BME280;19751;40.274;18.268;2022-12-18T06:32:30;102112.44;;;13.09;100.00
33404;BME280;19751;40.274;18.268;2022-12-18T06:34:56;102113.28;;;13.10;100.00
33404;BME280;19751;40.274;18.268;2022-12-18T06:37:23;102106.88;;;13.11;100.00
33404;BME280;19751;40.274;18.268;2022-12-18T06:39:53;102108.56;;;13.12;100.00
33404;BME280;19751;40.274;18.268;2022-12-18T06:42:19;102104.00;;;13.04;100.00
33404;BME280;19751;40.274;18.268;2022-12-18T06:44:48;102101.50;;;12.94;100.00
33404;BME280;19751;40.274;18.268;2022-12-18T06:47:14;102108.09;;;13.00;100.00
33404;BME280;19751;40.274;18.268;2022-12-18T06:49:39;102106.38;;;13.07;100.00
33404;BME280;19751;40.274;18.268;2022-12-18T06:52:05;102114.13;;;13.10;100.00
33404;BME280;19751;40.274;18.268;2022-12-18T06:54:34;102109.91;;;13.16;100.00
33404;BME280;19751;40.274;18.268;2022-12-18T06:56:59;102112.94;;;13.21;100.00
33404;BME280;19751;40.274;18.268;2022-12-18T06:59:25;102115.16;;;13.26;100.00
33404;BME280;19751;40.274;18.268;2022-12-18T07:01:51;102123.59;;;13.31;100.00
33404;BME280;19751;40.274;18.268;2022-12-18T07:04:16;102121.75;;;13.31;100.00
33404;BME280;19751;40.274;18.268;2022-12-18T07:06:42;102132.19;;;13.34;100.00
33404;BME280;19751;40.274;18.268;2022-12-18T07:09:07;102139.97;;;13.37;100.00
33404;BME280;19751;40.274;18.268;2022-12-18T07:11:34;102145.22;;;13.39;100.00
33404;BME280;19751;40.274;18.268;2022-12-18T07:14:02;102148.41;;;13.42;100.00
33404;BME280;19751;40.274;18.268;2022-12-18T07:16:27;102149.25;;;13.43;100.00
33404;BME280;19751;40.274;18.268;2022-12-18T07:18:54;102148.06;;;13.46;100.00
33404;BME280;19751;40.274;18.268;2022-12-18T07:21:20;102147.25;;;13.45;100.00
33404;BME280;19751;40.274;18.268;2022-12-18T07:23:47;102156.53;;;13.42;100.00
33404;BME280;19751;40.274;18.268;2022-12-18T07:26:17;102152.81;;;13.43;100.00
33404;BME280;19751;40.274;18.268;2022-12-18T07:28:43;102160.59;;;13.47;100.00
33404;BME280;19751;40.274;18.268;2022-12-18T07:31:13;102166.50;;;13.50;100.00
33404;BME280;19751;40.274;18.268;2022-12-18T07:33:40;102161.25;;;13.57;100.00
33404;BME280;19751;40.274;18.268;2022-12-18T07:36:07;102165.28;;;13.61;100.00
33404;BME280;19751;40.274;18.268;2022-12-18T07:38:34;102159.16;;;13.67;100.00
33404;BME280;19751;40.274;18.268;2022-12-18T07:41:07;102160.31;;;13.73;100.00
33404;BME280;19751;40.274;18.268;2022-12-18T07:43:33;102165.03;;;13.79;100.00
33404;BME280;19751;40.274;18.268;2022-12-18T07:45:59;102169.75;;;13.85;100.00
33404;BME280;19751;40.274;18.268;2022-12-18T07:48:25;102180.06;;;13.89;100.00
33404;BME280;19751;40.274;18.268;2022-12-18T07:50:50;102174.97;;;13.95;100.00
33404;BME280;19751;40.274;18.268;2022-12-18T07:53:16;102181.38;;;14.02;100.00
33404;BME280;19751;40.274;18.268;2022-12-18T07:55:42;102178.13;;;14.06;100.00
33404;BME280;19751;40.274;18.268;2022-12-18T07:58:08;102184.88;;;14.10;100.00
33404;BME280;19751;40.274;18.268;2022-12-18T08:00:35;102194.34;;;14.14;100.00
33404;BME280;19751;40.274;18.268;2022-12-18T08:03:01;102197.88;;;14.15;100.00
33404;BME280;19751;40.274;18.268;2022-12-18T08:05:27;102197.41;;;14.11;100.00
33404;BME280;19751;40.274;18.268;2022-12-18T08:07:53;102195.34;;;14.13;100.00
33404;BME280;19751;40.274;18.268;2022-12-18T08:10:27;102192.09;;;14.18;100.00
33404;BME280;19751;40.274;18.268;2022-12-18T08:12:52;102196.81;;;14.24;100.00
33404;BME280;19751;40.274;18.268;2022-12-18T08:15:20;102201.50;;;14.30;100.00
33404;BME280;19751;40.274;18.268;2022-12-18T08:17:46;102206.44;;;14.35;100.00
33404;BME280;19751;40.274;18.268;2022-12-18T08:20:12;102206.88;;;14.38;100.00
33404;BME280;19751;40.274;18.268;2022-12-18T08:22:42;102210.09;;;14.42;100.00
33404;BME280;19751;40.274;18.268;2022-12-18T08:25:08;102218.22;;;14.42;100.00
33404;BME280;19751;40.274;18.268;2022-12-18T08:27:34;102223.81;;;14.40;100.00
33404;BME280;19751;40.274;18.268;2022-12-18T08:29:59;102216.72;;;14.39;100.00
33404;BME280;19751;40.274;18.268;2022-12-18T08:32:26;102229.75;;;14.44;100.00
33404;BME280;19751;40.274;18.268;2022-12-18T08:34:52;102230.22;;;14.48;100.00
33404;BME280;19751;40.274;18.268;2022-12-18T08:37:18;102228.38;;;14.48;100.00
33404;BME280;19751;40.274;18.268;2022-12-18T08:39:47;102238.03;;;14.51;100.00
33404;BME280;19751;40.274;18.268;2022-12-18T08:42:13;102227.66;;;14.54;100.00
33404;BME280;19751;40.274;18.268;2022-12-18T08:45:03;102246.47;;;14.56;100.00
33404;BME280;19751;40.274;18.268;2022-12-18T08:47:29;102242.56;;;14.58;100.00
33404;BME280;19751;40.274;18.268;2022-12-18T08:49:56;102244.22;;;14.59;100.00
33404;BME280;19751;40.274;18.268;2022-12-18T08:52:21;102248.47;;;14.62;100.00
33404;BME280;19751;40.274;18.268;2022-12-18T08:54:47;102246.06;;;14.67;100.00
33404;BME280;19751;40.274;18.268;2022-12-18T08:57:14;102241.94;;;14.71;100.00
33404;BME280;19751;40.274;18.268;2022-12-18T08:59:39;102242.09;;;14.78;100.00
33404;BME280;19751;40.274;18.268;2022-12-18T09:02:06;102238.84;;;14.82;100.00
33404;BME280;19751;40.274;18.268;2022-12-18T09:04:34;102243.72;;;14.87;100.00
33404;BME280;19751;40.274;18.268;2022-12-18T09:07:00;102236.72;;;14.92;100.00
33404;BME280;19751;40.274;18.268;2022-12-18T09:09:32;102234.31;;;14.98;100.00
33404;BME280;19751;40.274;18.268;2022-12-18T09:11:58;102236.63;;;15.01;100.00
33404;BME280;19751;40.274;18.268;2022-12-18T09:14:23;102241.72;;;15.04;100.00
33404;BME280;19751;40.274;18.268;2022-12-18T09:16:49;102240.31;;;15.08;100.00
33404;BME280;19751;40.274;18.268;2022-12-18T09:19:15;102239.75;;;15.12;100.00
33404;BME280;19751;40.274;18.268;2022-12-18T09:21:40;102239.59;;;15.14;100.00
33404;BME280;19751;40.274;18.268;2022-12-18T09:24:11;102249.06;;;15.18;100.00
33404;BME280;19751;40.274;18.268;2022-12-18T09:26:37;102248.03;;;15.19;100.00
33404;BME280;19751;40.274;18.268;2022-12-18T09:29:04;102246.81;;;15.22;100.00
33404;BME280;19751;40.274;18.268;2022-12-18T09:34:07;102240.72;;;15.20;100.00
33404;BME280;19751;40.274;18.268;2022-12-18T09:36:33;102247.00;;;15.20;100.00
33404;BME280;19751;40.274;18.268;2022-12-18T09:38:58;102240.53;;;15.21;100.00
33404;BME280;19751;40.274;18.268;2022-12-18T09:41:43;102242.69;;;15.26;100.00
33404;BME280;19751;40.274;18.268;2022-12-18T09:44:32;102234.19;;;15.29;100.00
33404;BME280;19751;40.274;18.268;2022-12-18T09:49:43;102240.09;;;15.32;100.00
33404;BME280;19751;40.274;18.268;2022-12-18T09:55:21;102235.16;;;15.36;100.00
33404;BME280;19751;40.274;18.268;2022-12-18T09:57:53;102226.44;;;15.40;100.00
33404;BME280;19751;40.274;18.268;2022-12-18T10:00:23;102227.97;;;15.43;100.00
33404;BME280;19751;40.274;18.268;2022-12-18T10:02:52;102225.41;;;15.41;100.00
33404;BME280;19751;40.274;18.268;2022-12-18T10:05:47;102238.63;;;15.45;100.00
33404;BME280;19751;40.274;18.268;2022-12-18T10:08:25;102230.28;;;15.46;100.00
33404;BME280;19751;40.274;18.268;2022-12-18T10:13:52;102223.28;;;15.52;100.00
33404;BME280;19751;40.274;18.268;2022-12-18T10:16:42;102225.81;;;15.53;100.00
33404;BME280;19751;40.274;18.268;2022-12-18T10:24:50;102226.75;;;15.60;100.00
33404;BME280;19751;40.274;18.268;2022-12-18T10:27:23;102216.19;;;15.65;100.00
33404;BME280;19751;40.274;18.268;2022-12-18T10:29:50;102211.88;;;15.71;100.00
33404;BME280;19751;40.274;18.268;2022-12-18T10:32:18;102224.44;;;15.72;100.00
33404;BME280;19751;40.274;18.268;2022-12-18T10:34:47;102211.50;;;15.74;100.00
33404;BME280;19751;40.274;18.268;2022-12-18T10:37:20;102213.19;;;15.75;100.00
33404;BME280;19751;40.274;18.268;2022-12-18T10:40:08;102212.81;;;15.78;100.00
33404;BME280;19751;40.274;18.268;2022-12-18T10:42:34;102207.03;;;15.81;100.00
33404;BME280;19751;40.274;18.268;2022-12-18T10:45:07;102211.63;;;15.81;100.00
33404;BME280;19751;40.274;18.268;2022-12-18T10:47:34;102213.50;;;15.80;100.00
33404;BME280;19751;40.274;18.268;2022-12-18T10:49:59;102201.59;;;15.81;100.00
33404;BME280;19751;40.274;18.268;2022-12-18T10:52:27;102214.97;;;15.83;100.00
33404;BME280;19751;40.274;18.268;2022-12-18T10:54:53;102220.88;;;15.86;100.00
33404;BME280;19751;40.274;18.268;2022-12-18T10:59:53;102210.38;;;15.83;100.00
33404;BME280;19751;40.274;18.268;2022-12-18T11:02:48;102226.41;;;15.78;100.00
33404;BME280;19751;40.274;18.268;2022-12-18T11:07:52;102221.53;;;15.74;100.00
33404;BME280;19751;40.274;18.268;2022-12-18T11:10:29;102219.84;;;15.73;100.00
33404;BME280;19751;40.274;18.268;2022-12-18T11:12:56;102211.50;;;15.74;100.00
33404;BME280;19751;40.274;18.268;2022-12-18T11:15:33;102220.97;;;15.78;100.00
33404;BME280;19751;40.274;18.268;2022-12-18T11:17:59;102209.72;;;15.81;100.00
33404;BME280;19751;40.274;18.268;2022-12-18T11:20:31;102211.22;;;15.84;100.00
33404;BME280;19751;40.274;18.268;2022-12-18T11:23:00;102214.41;;;15.87;100.00
33404;BME280;19751;40.274;18.268;2022-12-18T11:25:26;102217.78;;;15.89;100.00
33404;BME280;19751;40.274;18.268;2022-12-18T11:27:55;102233.06;;;15.90;100.00
33404;BME280;19751;40.274;18.268;2022-12-18T11:30:22;102219.47;;;15.90;100.00
33404;BME280;19751;40.274;18.268;2022-12-18T11:32:51;102209.63;;;15.89;100.00
33404;BME280;19751;40.274;18.268;2022-12-18T11:35:22;102214.03;;;15.90;100.00
33404;BME280;19751;40.274;18.268;2022-12-18T11:37:54;102220.78;;;15.95;100.00
33404;BME280;19751;40.274;18.268;2022-12-18T11:40:26;102217.69;;;15.98;100.00
33404;BME280;19751;40.274;18.268;2022-12-18T11:43:15;102211.22;;;15.99;100.00
33404;BME280;19751;40.274;18.268;2022-12-18T11:46:05;102221.44;;;15.97;100.00
33404;BME280;19751;40.274;18.268;2022-12-18T11:48:52;102217.41;;;15.93;100.00
33404;BME280;19751;40.274;18.268;2022-12-18T11:52:22;102224.91;;;15.90;100.00
33404;BME280;19751;40.274;18.268;2022-12-18T11:54:22;102212.72;;;15.86;100.00
33404;BME280;19751;40.274;18.268;2022-12-18T11:57:06;102225.56;;;15.93;100.00
33404;BME280;19751;40.274;18.268;2022-12-18T11:59:53;102218.91;;;15.95;100.00
33404;BME280;19751;40.274;18.268;2022-12-18T12:08:06;102227.63;;;16.05;100.00
33404;BME280;19751;40.274;18.268;2022-12-18T12:10:54;102214.88;;;16.06;100.00
33404;BME280;19751;40.274;18.268;2022-12-18T12:16:28;102232.19;;;16.05;100.00
33404;BME280;19751;40.274;18.268;2022-12-18T12:21:44;102235.78;;;16.05;100.00
33404;BME280;19751;40.274;18.268;2022-12-18T12:24:30;102235.38;;;16.08;100.00
33404;BME280;19751;40.274;18.268;2022-12-18T12:32:25;102224.38;;;16.16;100.00
33404;BME280;19751;40.274;18.268;2022-12-18T12:35:18;102241.53;;;16.17;100.00
33404;BME280;19751;40.274;18.268;2022-12-18T12:40:24;102234.78;;;16.13;100.00
33404;BME280;19751;40.274;18.268;2022-12-18T12:42:59;102235.38;;;16.08;100.00
33404;BME280;19751;40.274;18.268;2022-12-18T12:45:55;102238.66;;;16.04;100.00
33404;BME280;19751;40.274;18.268;2022-12-18T12:48:31;102232.59;;;16.02;100.00
33404;BME280;19751;40.274;18.268;2022-12-18T12:51:04;102231.53;;;16.03;100.00
33404;BME280;19751;40.274;18.268;2022-12-18T12:53:36;102223.38;;;16.03;100.00
33404;BME280;19751;40.274;18.268;2022-12-18T12:56:04;102233.59;;;16.01;100.00
33404;BME280;19751;40.274;18.268;2022-12-18T13:02:28;102242.50;;;15.95;100.00
33404;BME280;19751;40.274;18.268;2022-12-18T13:04:52;102242.63;;;15.86;100.00
33404;BME280;19751;40.274;18.268;2022-12-18T13:08:04;102244.22;;;15.81;100.00
33404;BME280;19751;40.274;18.268;2022-12-18T13:10:35;102243.06;;;15.75;100.00
33404;BME280;19751;40.274;18.268;2022-12-18T13:16:02;102251.97;;;15.69;100.00
33404;BME280;19751;40.274;18.268;2022-12-18T13:18:28;102255.06;;;15.66;100.00
33404;BME280;19751;40.274;18.268;2022-12-18T13:25:49;102260.06;;;15.54;100.00
33404;BME280;19751;40.274;18.268;2022-12-18T13:31:00;102260.34;;;15.45;100.00
33404;BME280;19751;40.274;18.268;2022-12-18T13:38:39;102268.09;;;15.33;100.00
33404;BME280;19751;40.274;18.268;2022-12-18T13:48:52;102271.84;;;15.32;100.00
33404;BME280;19751;40.274;18.268;2022-12-18T13:51:19;102269.13;;;15.32;100.00
33404;BME280;19751;40.274;18.268;2022-12-18T13:53:55;102266.69;;;15.37;100.00
33404;BME280;19751;40.274;18.268;2022-12-18T13:56:25;102276.16;;;15.41;100.00
33404;BME280;19751;40.274;18.268;2022-12-18T13:59:19;102274.84;;;15.37;100.00
33404;BME280;19751;40.274;18.268;2022-12-18T14:01:57;102271.09;;;15.38;100.00
33404;BME280;19751;40.274;18.268;2022-12-18T14:04:27;102271.94;;;15.38;100.00
33404;BME280;19751;40.274;18.268;2022-12-18T14:07:00;102269.06;;;15.40;100.00
33404;BME280;19751;40.274;18.268;2022-12-18T14:09:30;102269.88;;;15.40;100.00
33404;BME280;19751;40.274;18.268;2022-12-18T14:11:57;102278.03;;;15.40;100.00
33404;BME280;19751;40.274;18.268;2022-12-18T14:14:46;102278.88;;;15.41;100.00
33404;BME280;19751;40.274;18.268;2022-12-18T14:17:14;102283.28;;;15.42;100.00
33404;BME280;19751;40.274;18.268;2022-12-18T14:19:49;102281.59;;;15.41;100.00